Time;durP1;ratioP1;P1;durP2;ratioP2;P2;SDS_P1;SDS_P2;PMS_P1;PMS_P2;Temp;Humidity;BMP_temperature;BMP_pressure;BME280_temperature;BME280_humidity;BME280_pressure;Samples;Min_cycle;Max_cycle;Signal;HPM_P1;HPM_P2
2021/11/23 00:03:18;;;;;;;;;;;;;;;8.64;100.00;94658.66;10483072;28;19920;-75
2021/11/23 00:08:20;;;;;;;;;;;;;;;8.72;100.00;94663.47;10484509;28;19919;-73
2021/11/23 00:13:20;;;;;;;;;;;;;;;8.65;100.00;94665.59;10486326;28;20356;-77
2021/11/23 00:18:20;;;;;;;;;;;;;;;8.72;100.00;94669.66;10524575;28;19920;-76
2021/11/23 00:23:21;;;;;;;;;;;;;;;8.86;100.00;94672.66;10524447;28;19918;-76
2021/11/23 00:28:21;;;;;;;;;;;;;;;8.76;100.00;94661.88;10524354;28;20033;-76
2021/11/23 00:33:22;;;;;;;;;;;;;;;8.86;100.00;94671.84;10524146;28;19919;-73
2021/11/23 00:38:22;;;;;;;;;;;;;;;8.84;100.00;94674.78;10483095;28;20309;-75
2021/11/23 00:43:22;;;;;;;;;;;;;;;8.72;100.00;94672.34;10483292;28;19950;-76
2021/11/23 00:48:23;;;;;;;;;;;;;;;8.60;100.00;94673.63;10481711;28;19916;-76
2021/11/23 00:53:23;;;;;;;;;;;;;;;8.56;100.00;94670.66;10482714;28;19919;-77
2021/11/23 00:58:24;;;;;;;;;;;;;;;8.48;100.00;94674.63;10482571;28;19923;-74
2021/11/23 01:03:25;;;;;;;;;;;;;;;8.49;100.00;94675.47;10481761;28;19998;-73
2021/11/23 01:08:27;;;;;;;;;;;;;;;8.52;100.00;94673.03;10490649;28;19920;-76
2021/11/23 01:13:27;;;;;;;;;;;;;;;8.48;100.00;94673.84;10489704;28;20272;-74
2021/11/23 01:18:28;;;;;;;;;;;;;;;8.46;100.00;94673.31;10488881;28;19920;-78
2021/11/23 01:23:28;;;;;;;;;;;;;;;8.52;100.00;94678.41;10515853;28;19912;-75
2021/11/23 01:28:29;;;;;;;;;;;;;;;8.39;100.00;94690.38;10531488;28;19942;-75
2021/11/23 01:33:30;;;;;;;;;;;;;;;8.48;100.00;94684.56;10532228;28;19980;-75
2021/11/23 01:38:31;;;;;;;;;;;;;;;8.37;100.00;94686.34;10521586;28;19917;-74
2021/11/23 01:43:31;;;;;;;;;;;;;;;8.47;100.00;94683.75;10506308;28;19912;-76
2021/11/23 01:48:32;;;;;;;;;;;;;;;8.49;100.00;94688.84;10508070;28;19917;-74
2021/11/23 01:53:32;;;;;;;;;;;;;;;8.47;100.00;94689.13;10505323;28;19943;-75
2021/11/23 01:58:33;;;;;;;;;;;;;;;8.50;100.00;94680.56;10504588;28;19923;-73
2021/11/23 02:03:38;;;;;;;;;;;;;;;8.54;100.00;94681.66;10504369;28;20358;-74
2021/11/23 02:08:38;;;;;;;;;;;;;;;8.52;100.00;94697.16;10505532;28;19913;-75
2021/11/23 02:13:41;;;;;;;;;;;;;;;8.56;100.00;94689.41;10491520;28;19925;-75
2021/11/23 02:18:41;;;;;;;;;;;;;;;8.53;100.00;94679.22;10489092;28;19966;-73
2021/11/23 02:23:41;;;;;;;;;;;;;;;8.61;100.00;94689.44;10503987;28;19912;-72
2021/11/23 02:28:42;;;;;;;;;;;;;;;8.56;100.00;94678.69;10504403;28;19912;-80
2021/11/23 02:33:42;;;;;;;;;;;;;;;8.56;100.00;94689.41;10503534;28;20485;-75
2021/11/23 02:38:42;;;;;;;;;;;;;;;8.57;100.00;94677.66;10503305;28;19939;-73
2021/11/23 02:43:43;;;;;;;;;;;;;;;8.57;100.00;94685.69;10503935;28;20362;-78
2021/11/23 02:48:43;;;;;;;;;;;;;;;8.45;100.00;94688.56;10503212;28;19916;-72
2021/11/23 02:53:44;;;;;;;;;;;;;;;8.27;100.00;94686.28;10487377;28;20305;-74
2021/11/23 02:58:50;;;;;;;;;;;;;;;8.18;100.00;94688.66;10503662;28;20448;-76
2021/11/23 03:03:51;;;;;;;;;;;;;;;8.30;100.00;94691.94;10486913;28;19912;-77
2021/11/23 03:08:51;;;;;;;;;;;;;;;8.30;100.00;94697.31;10503344;28;19918;-76
2021/11/23 03:13:52;;;;;;;;;;;;;;;8.13;100.00;94693.97;10502030;28;20303;-75
2021/11/23 03:18:52;;;;;;;;;;;;;;;8.07;100.00;94698.50;10502402;28;19916;-73
2021/11/23 03:23:53;;;;;;;;;;;;;;;8.07;100.00;94703.06;10487383;28;20370;-76
2021/11/23 03:28:53;;;;;;;;;;;;;;;8.15;100.00;94711.41;10503632;28;20443;-82
2021/11/23 03:33:53;;;;;;;;;;;;;;;8.07;100.00;94713.75;10504111;28;19952;-83
2021/11/23 03:38:54;;;;;;;;;;;;;;;7.91;100.00;94713.66;10501949;28;19917;-75
2021/11/23 03:43:54;;;;;;;;;;;;;;;8.06;100.00;94720.16;10502296;28;19913;-80
2021/11/23 03:48:54;;;;;;;;;;;;;;;8.10;100.00;94719.38;10500966;28;19920;-73
2021/11/23 03:53:54;;;;;;;;;;;;;;;8.09;100.00;94719.66;10500739;28;20573;-71
2021/11/23 03:58:55;;;;;;;;;;;;;;;8.06;100.00;94722.84;10484116;28;20333;-74
2021/11/23 04:03:55;;;;;;;;;;;;;;;8.01;100.00;94723.63;10500667;28;19916;-73
2021/11/23 04:08:55;;;;;;;;;;;;;;;8.03;100.00;94729.50;10501046;28;19984;-75
2021/11/23 04:13:56;;;;;;;;;;;;;;;8.02;100.00;94733.25;10499989;28;19936;-74
2021/11/23 04:18:56;;;;;;;;;;;;;;;8.03;100.00;94733.00;10501284;28;19920;-80
2021/11/23 04:23:57;;;;;;;;;;;;;;;7.94;100.00;94731.88;10500174;28;19921;-72
2021/11/23 04:28:57;;;;;;;;;;;;;;;7.85;100.00;94738.75;10501762;28;19922;-75
2021/11/23 04:33:57;;;;;;;;;;;;;;;7.68;100.00;94746.91;10484803;28;19913;-77
2021/11/23 04:38:58;;;;;;;;;;;;;;;7.52;100.00;94741.41;10499906;28;19920;-72
2021/11/23 04:43:58;;;;;;;;;;;;;;;7.56;100.00;94744.38;10507856;28;19913;-78
2021/11/23 04:48:59;;;;;;;;;;;;;;;7.66;100.00;94743.66;10508815;28;19912;-74
2021/11/23 04:53:59;;;;;;;;;;;;;;;7.66;100.00;94747.16;10507705;28;19928;-76
2021/11/23 04:59:00;;;;;;;;;;;;;;;7.70;100.00;94753.63;10524173;28;19916;-73
2021/11/23 05:04:00;;;;;;;;;;;;;;;7.79;100.00;94763.84;10533653;28;20390;-75
2021/11/23 05:09:01;;;;;;;;;;;;;;;7.90;100.00;94772.75;10525327;28;19971;-80
2021/11/23 05:14:01;;;;;;;;;;;;;;;7.79;100.00;94777.22;10505176;28;19931;-78
2021/11/23 05:19:02;;;;;;;;;;;;;;;7.94;100.00;94772.00;10516388;28;19923;-80
2021/11/23 05:24:02;;;;;;;;;;;;;;;7.86;100.00;94780.50;10490829;28;20004;-79
2021/11/23 05:29:03;;;;;;;;;;;;;;;7.98;100.00;94781.16;10505605;28;19962;-77
2021/11/23 05:34:03;;;;;;;;;;;;;;;8.06;100.00;94785.19;10525925;28;19912;-75
2021/11/23 05:39:04;;;;;;;;;;;;;;;8.17;100.00;94783.41;10504212;28;19917;-77
2021/11/23 05:44:05;;;;;;;;;;;;;;;8.15;100.00;94798.91;10492627;28;19915;-75
2021/11/23 05:49:06;;;;;;;;;;;;;;;8.14;100.00;94798.13;10529876;28;19912;-76
2021/11/23 05:54:06;;;;;;;;;;;;;;;8.23;100.00;94801.13;10530888;28;20355;-74
2021/11/23 05:59:06;;;;;;;;;;;;;;;8.20;100.00;94804.31;10496842;28;20035;-76
2021/11/23 06:04:07;;;;;;;;;;;;;;;8.17;100.00;94820.91;10509116;28;20425;-80
2021/11/23 06:09:07;;;;;;;;;;;;;;;7.91;100.00;94836.75;10505097;28;20344;-77
2021/11/23 06:14:08;;;;;;;;;;;;;;;7.92;100.00;94841.03;10528656;28;19924;-76
2021/11/23 06:19:08;;;;;;;;;;;;;;;8.16;100.00;94838.00;10529080;28;19959;-75
2021/11/23 06:24:09;;;;;;;;;;;;;;;8.12;100.00;94845.75;10494899;28;20290;-76
2021/11/23 06:29:10;;;;;;;;;;;;;;;8.34;100.00;94855.56;10487679;28;19916;-78
2021/11/23 06:34:10;;;;;;;;;;;;;;;8.32;100.00;94850.47;10502788;28;19912;-73
2021/11/23 06:39:10;;;;;;;;;;;;;;;8.50;100.00;94859.22;10487836;28;19920;-79
2021/11/23 06:44:11;;;;;;;;;;;;;;;8.55;100.00;94861.91;10502608;28;19977;-77
2021/11/23 06:49:11;;;;;;;;;;;;;;;8.55;100.00;94862.75;10502783;28;20405;-76
2021/11/23 06:54:11;;;;;;;;;;;;;;;8.64;100.00;94871.09;10502159;28;19919;-76
2021/11/23 06:59:12;;;;;;;;;;;;;;;8.53;100.00;94867.53;10502561;28;19960;-75
2021/11/23 07:04:12;;;;;;;;;;;;;;;8.64;100.00;94879.13;10501474;28;20367;-75
2021/11/23 07:09:12;;;;;;;;;;;;;;;8.65;100.00;94883.44;10501120;28;20019;-79
2021/11/23 07:14:13;;;;;;;;;;;;;;;8.60;100.00;94896.00;10486029;28;19989;-75
2021/11/23 07:19:15;;;;;;;;;;;;;;;8.69;100.00;94902.47;10501488;28;19923;-78
2021/11/23 07:24:15;;;;;;;;;;;;;;;8.64;100.00;94908.59;10501281;28;19919;-76
2021/11/23 07:29:15;;;;;;;;;;;;;;;8.66;100.00;94914.50;10499179;28;19912;-78
2021/11/23 07:34:16;;;;;;;;;;;;;;;8.58;100.00;94914.97;10527074;28;19970;-80
2021/11/23 07:39:16;;;;;;;;;;;;;;;8.41;100.00;94928.47;10525015;28;20024;-73
2021/11/23 07:44:16;;;;;;;;;;;;;;;8.54;100.00;94927.28;10527927;28;19916;-75
2021/11/23 07:49:18;;;;;;;;;;;;;;;8.12;100.00;94935.94;10526784;28;20329;-77
2021/11/23 07:54:18;;;;;;;;;;;;;;;8.09;100.00;94950.66;10488304;28;19916;-75
2021/11/23 07:59:18;;;;;;;;;;;;;;;8.22;100.00;94952.13;10500996;28;19938;-75
2021/11/23 08:04:19;;;;;;;;;;;;;;;8.30;100.00;94959.72;10483392;28;20441;-75
2021/11/23 08:09:19;;;;;;;;;;;;;;;8.21;100.00;94959.34;10484819;28;19944;-76
2021/11/23 08:14:22;;;;;;;;;;;;;;;8.10;100.00;94959.50;10509868;28;19966;-76
2021/11/23 08:19:22;;;;;;;;;;;;;;;8.04;100.00;94962.13;10524979;28;19916;-77
2021/11/23 08:24:23;;;;;;;;;;;;;;;8.06;100.00;94963.75;10524293;28;20354;-75
2021/11/23 08:29:23;;;;;;;;;;;;;;;7.78;100.00;94973.59;10524258;28;20006;-73
2021/11/23 08:34:23;;;;;;;;;;;;;;;7.53;100.00;94972.22;10525118;28;19923;-78
2021/11/23 08:39:24;;;;;;;;;;;;;;;7.41;100.00;94983.03;10527034;28;19927;-77
2021/11/23 08:44:24;;;;;;;;;;;;;;;7.32;100.00;94982.63;10523931;28;20309;-75
2021/11/23 08:49:24;;;;;;;;;;;;;;;7.16;100.00;94988.84;10526052;28;19916;-74
2021/11/23 08:54:25;;;;;;;;;;;;;;;7.09;100.00;94993.50;10524535;28;19912;-75
2021/11/23 08:59:25;;;;;;;;;;;;;;;7.25;100.00;94995.38;10525573;28;19920;-74
2021/11/23 09:04:26;;;;;;;;;;;;;;;7.11;100.00;94996.78;10525249;28;20451;-74
2021/11/23 09:09:27;;;;;;;;;;;;;;;6.98;100.00;94996.03;10525875;28;20437;-75
2021/11/23 09:14:28;;;;;;;;;;;;;;;6.99;100.00;95003.00;10524676;28;20369;-74
2021/11/23 09:19:28;;;;;;;;;;;;;;;7.13;100.00;95005.34;10524392;28;19920;-77
2021/11/23 09:24:29;;;;;;;;;;;;;;;7.21;100.00;95006.81;10523464;28;19919;-74
2021/11/23 09:29:29;;;;;;;;;;;;;;;7.32;100.00;94997.88;10530055;28;20340;-75
2021/11/23 09:34:30;;;;;;;;;;;;;;;7.16;100.00;95003.00;10532370;28;19912;-78
2021/11/23 09:39:31;;;;;;;;;;;;;;;7.23;100.00;95004.69;10533983;28;19923;-76
2021/11/23 09:44:31;;;;;;;;;;;;;;;7.44;100.00;94997.78;10532343;28;20278;-75
2021/11/23 09:49:32;;;;;;;;;;;;;;;7.35;100.00;94986.69;10532087;28;19919;-78
2021/11/23 09:54:32;;;;;;;;;;;;;;;7.71;100.00;94981.81;10530993;28;19962;-79
2021/11/23 09:59:32;;;;;;;;;;;;;;;7.53;100.00;94991.75;10529087;28;19916;-76
2021/11/23 10:04:36;;;;;;;;;;;;;;;7.36;100.00;94982.97;10532856;28;20372;-78
2021/11/23 10:09:36;;;;;;;;;;;;;;;7.35;100.00;94995.53;10531037;28;19920;-77
2021/11/23 10:14:37;;;;;;;;;;;;;;;7.58;100.00;94985.66;10529354;28;19924;-77
2021/11/23 10:19:50;;;;;;;;;;;;;;;7.55;100.00;94982.66;10528117;28;19927;-77
2021/11/23 10:25:03;;;;;;;;;;;;;;;7.75;100.00;94982.13;10529115;28;19916;-76
2021/11/23 10:30:05;;;;;;;;;;;;;;;7.80;100.00;94979.50;10530763;28;19912;-74
2021/11/23 10:35:15;;;;;;;;;;;;;;;8.30;100.00;94983.00;10492988;28;19952;-74
2021/11/23 10:40:17;;;;;;;;;;;;;;;8.51;100.00;94984.03;10504929;28;20090;-79
2021/11/23 10:45:18;;;;;;;;;;;;;;;8.36;100.00;94980.13;10503793;28;20425;-77
2021/11/23 10:50:20;;;;;;;;;;;;;;;8.50;100.00;94974.41;10486618;28;20062;-77
2021/11/23 10:55:20;;;;;;;;;;;;;;;8.61;100.00;94968.06;10502514;28;20377;-75
2021/11/23 11:00:21;;;;;;;;;;;;;;;8.31;100.00;94966.66;10502501;28;19966;-78
2021/11/23 11:05:22;;;;;;;;;;;;;;;8.46;100.00;94976.75;10502948;28;19916;-78
2021/11/23 11:10:23;;;;;;;;;;;;;;;8.46;100.00;94974.09;10501291;28;19924;-77
2021/11/23 11:15:26;;;;;;;;;;;;;;;7.95;100.00;94978.88;10486481;28;19919;-80
2021/11/23 11:20:35;;;;;;;;;;;;;;;7.64;100.00;94981.97;10526272;28;19920;-73
2021/11/23 11:25:50;;;;;;;;;;;;;;;7.60;100.00;94983.53;10528379;28;19912;-78
2021/11/23 11:30:51;;;;;;;;;;;;;;;7.88;100.00;94989.75;10527082;28;19968;-75
2021/11/23 11:35:52;;;;;;;;;;;;;;;8.16;100.00;94983.41;10525060;28;19916;-77
2021/11/23 11:40:53;;;;;;;;;;;;;;;8.42;100.00;94977.50;10525596;28;19916;-74
2021/11/23 11:45:54;;;;;;;;;;;;;;;8.51;100.00;94973.31;10525804;28;20414;-76
2021/11/23 11:51:08;;;;;;;;;;;;;;;8.57;100.00;94982.19;10524853;28;19954;-74
2021/11/23 11:56:09;;;;;;;;;;;;;;;8.55;100.00;94988.66;10527856;28;19967;-77
2021/11/23 12:01:18;;;;;;;;;;;;;;;8.60;100.00;94987.88;10526537;28;19916;-78
2021/11/23 12:06:19;;;;;;;;;;;;;;;8.42;100.00;94993.56;10524194;28;19988;-77
2021/11/23 12:11:28;;;;;;;;;;;;;;;8.46;100.00;95002.75;10519347;28;19924;-75
2021/11/23 12:16:38;;;;;;;;;;;;;;;8.19;100.00;95007.00;10519489;28;19920;-75
2021/11/23 12:22:02;;;;;;;;;;;;;;;8.11;100.00;95004.75;10524537;28;19920;-76
2021/11/23 12:27:16;;;;;;;;;;;;;;;8.15;100.00;95007.72;10524251;28;19951;-79
2021/11/23 12:32:18;;;;;;;;;;;;;;;7.86;100.00;95015.97;10524837;28;19912;-73
2021/11/23 12:37:18;;;;;;;;;;;;;;;7.53;100.00;95021.19;10524320;28;19942;-80
2021/11/23 12:42:18;;;;;;;;;;;;;;;7.19;100.00;95015.88;10524250;28;19927;-74
2021/11/23 12:47:20;;;;;;;;;;;;;;;6.67;100.00;95021.47;10522924;28;19912;-79
2021/11/23 12:52:25;;;;;;;;;;;;;;;6.66;100.00;95025.19;10523904;28;19919;-73
2021/11/23 12:57:26;;;;;;;;;;;;;;;6.82;100.00;95026.25;10523712;28;19970;-74
2021/11/23 13:02:29;;;;;;;;;;;;;;;7.07;100.00;95022.38;10528956;28;19916;-80
2021/11/23 13:07:30;;;;;;;;;;;;;;;7.24;100.00;95019.66;10533109;28;19912;-75
2021/11/23 13:12:34;;;;;;;;;;;;;;;7.00;100.00;95031.38;10533453;28;19924;-78
2021/11/23 13:17:38;;;;;;;;;;;;;;;7.28;100.00;95034.97;10532564;28;19995;-80
2021/11/23 13:22:40;;;;;;;;;;;;;;;7.43;100.00;95046.97;10514779;28;19916;-78
2021/11/23 13:27:41;;;;;;;;;;;;;;;7.58;100.00;95043.69;10515335;28;19912;-76
2021/11/23 13:32:44;;;;;;;;;;;;;;;7.72;100.00;95046.81;10532101;28;19912;-75
2021/11/23 13:37:49;;;;;;;;;;;;;;;7.54;100.00;95054.06;10531039;28;20449;-74
2021/11/23 13:42:51;;;;;;;;;;;;;;;7.50;100.00;95069.00;10530493;28;20451;-78
2021/11/23 13:47:51;;;;;;;;;;;;;;;7.22;100.00;95068.03;10512841;28;19912;-81
2021/11/23 13:52:58;;;;;;;;;;;;;;;7.26;100.00;95074.53;10530174;28;19912;-76
2021/11/23 13:57:59;;;;;;;;;;;;;;;7.19;100.00;95066.66;10530099;28;19970;-75
2021/11/23 14:03:13;;;;;;;;;;;;;;;6.87;100.00;95069.06;10529083;28;20010;-78
2021/11/23 14:08:14;;;;;;;;;;;;;;;6.99;100.00;95077.84;10529675;28;19953;-80
2021/11/23 14:13:17;;;;;;;;;;;;;;;6.66;100.00;95076.72;10528905;28;19924;-75
2021/11/23 14:18:17;;;;;;;;;;;;;;;6.27;100.00;95087.22;10512443;28;19916;-74
2021/11/23 14:23:17;;;;;;;;;;;;;;;6.33;100.00;95091.63;10528620;28;20382;-77
2021/11/23 14:28:18;;;;;;;;;;;;;;;6.22;100.00;95081.78;10528799;28;19912;-75
2021/11/23 14:33:22;;;;;;;;;;;;;;;6.15;100.00;95099.78;10511689;28;19931;-74
2021/11/23 14:38:23;;;;;;;;;;;;;;;6.32;100.00;95107.84;10528072;28;20003;-79
2021/11/23 14:43:23;;;;;;;;;;;;;;;6.18;100.00;95109.97;10528499;28;19912;-78
2021/11/23 14:48:24;;;;;;;;;;;;;;;6.35;100.00;95118.06;10527339;28;19912;-75
2021/11/23 14:53:24;;;;;;;;;;;;;;;6.33;100.00;95129.00;10527775;28;20370;-79
2021/11/23 14:58:25;;;;;;;;;;;;;;;6.19;100.00;95129.50;10527753;28;20003;-77
2021/11/23 15:03:25;;;;;;;;;;;;;;;5.96;100.00;95125.78;10526596;28;19954;-75
2021/11/23 15:08:27;;;;;;;;;;;;;;;6.02;100.00;95134.75;10534240;28;19919;-79
2021/11/23 15:13:27;;;;;;;;;;;;;;;5.70;100.00;95138.56;10527630;28;19971;-77
2021/11/23 15:18:29;;;;;;;;;;;;;;;5.68;100.00;95134.50;10525975;28;20022;-76
2021/11/23 15:23:29;;;;;;;;;;;;;;;5.73;100.00;95134.63;10527152;28;19912;-74
2021/11/23 15:28:29;;;;;;;;;;;;;;;5.55;100.00;95147.00;10526638;28;19922;-76
2021/11/23 15:33:29;;;;;;;;;;;;;;;5.82;100.00;95154.56;10525390;28;19916;-75
2021/11/23 15:38:30;;;;;;;;;;;;;;;6.03;100.00;95152.34;10526489;28;19922;-76
2021/11/23 15:43:31;;;;;;;;;;;;;;;5.91;100.00;95150.47;10528012;28;19918;-76
2021/11/23 15:48:31;;;;;;;;;;;;;;;5.82;100.00;95171.38;10527025;28;20011;-79
2021/11/23 15:53:33;;;;;;;;;;;;;;;5.58;100.00;95175.88;10525295;28;19916;-80
2021/11/23 15:58:33;;;;;;;;;;;;;;;5.58;100.00;95185.72;10526242;28;19922;-78
2021/11/23 16:03:34;;;;;;;;;;;;;;;5.60;100.00;95192.44;10500684;28;19938;-76
2021/11/23 16:08:34;;;;;;;;;;;;;;;5.37;100.00;95195.09;10500078;28;19971;-78
2021/11/23 16:13:37;;;;;;;;;;;;;;;5.23;100.00;95203.28;10516430;28;19932;-77
2021/11/23 16:18:38;;;;;;;;;;;;;;;5.41;100.00;95207.72;10523149;28;19929;-75
2021/11/23 16:23:38;;;;;;;;;;;;;;;5.22;100.00;95209.66;10483254;28;19919;-78
2021/11/23 16:28:41;;;;;;;;;;;;;;;5.28;100.00;95214.06;10512381;28;19912;-81
2021/11/23 16:33:41;;;;;;;;;;;;;;;5.31;100.00;95220.78;10525187;28;19916;-74
2021/11/23 16:38:43;;;;;;;;;;;;;;;4.93;100.00;95225.41;10534288;28;19924;-78
2021/11/23 16:43:43;;;;;;;;;;;;;;;4.88;100.00;95237.78;10532581;28;19919;-78
2021/11/23 16:48:44;;;;;;;;;;;;;;;4.99;100.00;95245.00;10515369;28;20299;-78
2021/11/23 16:53:47;;;;;;;;;;;;;;;5.07;100.00;95250.03;10507380;28;20358;-78
2021/11/23 16:58:47;;;;;;;;;;;;;;;5.22;100.00;95251.47;10490748;28;19916;-80
2021/11/23 17:03:49;;;;;;;;;;;;;;;5.09;100.00;95269.28;10506079;28;19920;-82
2021/11/23 17:08:50;;;;;;;;;;;;;;;4.96;100.00;95270.25;10490070;28;20558;-76
2021/11/23 17:13:50;;;;;;;;;;;;;;;4.86;100.00;95283.28;10490351;28;19931;-76
2021/11/23 17:18:51;;;;;;;;;;;;;;;4.87;100.00;95290.25;10506866;28;19925;-77
2021/11/23 17:23:51;;;;;;;;;;;;;;;5.08;100.00;95291.63;10506412;28;19938;-80
2021/11/23 17:28:52;;;;;;;;;;;;;;;5.13;100.00;95298.94;10522879;28;19973;-83
2021/11/23 17:33:52;;;;;;;;;;;;;;;4.82;100.00;95295.41;10529583;28;19920;-80
2021/11/23 17:38:52;;;;;;;;;;;;;;;4.83;100.00;95299.72;10530793;28;19972;-80
2021/11/23 17:43:53;;;;;;;;;;;;;;;4.58;100.00;95299.78;10543535;22;19924;-78
2021/11/23 17:48:53;;;;;;;;;;;;;;;4.59;100.00;95299.56;10431135;28;19921;-81
2021/11/23 17:53:54;;;;;;;;;;;;;;;4.61;100.00;95297.47;10428994;28;19920;-75
2021/11/23 17:58:56;;;;;;;;;;;;;;;4.58;100.00;95300.59;10430834;28;19921;-76
2021/11/23 18:03:57;;;;;;;;;;;;;;;4.53;100.00;95305.75;10430087;28;19920;-76
2021/11/23 18:08:57;;;;;;;;;;;;;;;4.55;100.00;95306.38;10428828;28;19912;-74
2021/11/23 18:13:58;;;;;;;;;;;;;;;4.83;100.00;95314.84;10430836;28;19969;-77
2021/11/23 18:18:59;;;;;;;;;;;;;;;4.68;100.00;95323.25;10429577;28;19917;-76
2021/11/23 18:23:59;;;;;;;;;;;;;;;4.62;100.00;95322.28;10448848;28;19917;-74
2021/11/23 18:28:59;;;;;;;;;;;;;;;4.52;100.00;95328.09;10429094;28;19913;-78
2021/11/23 18:34:00;;;;;;;;;;;;;;;4.47;100.00;95335.13;10429280;28;20321;-77
2021/11/23 18:39:00;;;;;;;;;;;;;;;4.55;100.00;95335.66;10537380;22;20035;-73
2021/11/23 18:44:10;;;;;;;;;;;;;;;4.68;100.00;95333.88;10461506;28;19913;-75
2021/11/23 18:49:10;;;;;;;;;;;;;;;4.78;100.00;95339.50;10465122;28;20074;-75
2021/11/23 18:54:12;;;;;;;;;;;;;;;4.90;100.00;95337.72;10464337;28;19917;-79
2021/11/23 18:59:13;;;;;;;;;;;;;;;4.88;100.00;95334.47;10467150;28;19970;-79
2021/11/23 19:04:16;;;;;;;;;;;;;;;5.04;100.00;95334.94;10466433;28;19928;-80
2021/11/23 19:09:17;;;;;;;;;;;;;;;4.89;100.00;95333.44;10469503;28;19917;-77
2021/11/23 19:14:17;;;;;;;;;;;;;;;4.91;100.00;95333.22;10461949;28;19912;-75
2021/11/23 19:19:17;;;;;;;;;;;;;;;4.75;100.00;95339.94;10456229;28;19970;-76
2021/11/23 19:24:18;;;;;;;;;;;;;;;4.90;100.00;95339.59;10466427;28;19912;-77
2021/11/23 19:29:20;;;;;;;;;;;;;;;4.74;100.00;95336.47;10465744;28;19912;-74
2021/11/23 19:34:20;;;;;;;;;;;;;;;4.69;100.00;95327.50;10456700;28;19913;-75
2021/11/23 19:39:20;;;;;;;;;;;;;;;4.57;100.00;95330.09;10446709;28;20029;-73
2021/11/23 19:44:21;;;;;;;;;;;;;;;4.57;100.00;95332.75;10425437;28;19917;-74
2021/11/23 19:49:22;;;;;;;;;;;;;;;4.59;100.00;95338.66;10428650;28;19916;-74
2021/11/23 19:54:22;;;;;;;;;;;;;;;4.54;100.00;95342.00;10423385;28;20343;-76
2021/11/23 19:59:22;;;;;;;;;;;;;;;4.54;100.00;95352.66;10418006;28;19917;-70
2021/11/23 20:04:23;;;;;;;;;;;;;;;4.61;100.00;95349.94;10417470;28;19917;-73
2021/11/23 20:09:23;;;;;;;;;;;;;;;4.65;100.00;95350.28;10456254;28;19920;-75
2021/11/23 20:14:29;;;;;;;;;;;;;;;4.60;100.00;95351.78;10442459;28;20003;-75
2021/11/23 20:19:29;;;;;;;;;;;;;;;4.54;100.00;95360.63;10440793;28;20457;-76
2021/11/23 20:24:31;;;;;;;;;;;;;;;4.59;100.00;95360.78;10400794;28;20295;-75
2021/11/23 20:29:32;;;;;;;;;;;;;;;4.54;100.00;95362.50;10401498;28;19963;-80
2021/11/23 20:34:33;;;;;;;;;;;;;;;4.49;100.00;95365.78;10416403;28;20302;-76
2021/11/23 20:39:33;;;;;;;;;;;;;;;4.51;100.00;95373.56;10441676;28;20012;-75
2021/11/23 20:44:34;;;;;;;;;;;;;;;4.44;100.00;95360.34;10441641;28;20396;-77
2021/11/23 20:49:36;;;;;;;;;;;;;;;4.48;100.00;95366.00;10416934;28;19917;-75
2021/11/23 20:54:36;;;;;;;;;;;;;;;4.46;100.00;95360.91;10444587;28;19916;-78
2021/11/23 20:59:37;;;;;;;;;;;;;;;4.47;100.00;95367.06;10440756;28;19917;-74
2021/11/23 21:04:37;;;;;;;;;;;;;;;4.47;100.00;95365.22;10440421;28;19913;-72
2021/11/23 21:09:38;;;;;;;;;;;;;;;4.44;100.00;95365.66;10440350;28;19999;-79
2021/11/23 21:14:38;;;;;;;;;;;;;;;4.41;100.00;95366.06;10440659;28;19919;-77
2021/11/23 21:19:38;;;;;;;;;;;;;;;4.36;100.00;95377.38;10440753;28;19921;-75
2021/11/23 21:24:38;;;;;;;;;;;;;;;4.51;100.00;95386.88;10446164;28;19916;-78
2021/11/23 21:29:39;;;;;;;;;;;;;;;4.51;100.00;95381.53;10448815;28;20389;-81
2021/11/23 21:34:39;;;;;;;;;;;;;;;4.65;100.00;95382.22;10448521;28;20331;-80
2021/11/23 21:39:39;;;;;;;;;;;;;;;4.71;100.00;95384.03;10447585;28;19921;-74
2021/11/23 21:44:42;;;;;;;;;;;;;;;5.08;100.00;95398.19;10448473;28;19917;-75
2021/11/23 21:49:42;;;;;;;;;;;;;;;5.30;100.00;95389.72;10447961;28;19912;-77
2021/11/23 21:54:42;;;;;;;;;;;;;;;5.34;100.00;95388.25;10447175;28;19916;-74
2021/11/23 21:59:43;;;;;;;;;;;;;;;5.45;100.00;95386.69;10438538;28;19928;-73
2021/11/23 22:04:43;;;;;;;;;;;;;;;5.54;100.00;95392.50;10422543;28;19913;-74
2021/11/23 22:09:43;;;;;;;;;;;;;;;5.60;100.00;95403.09;10405396;28;19913;-73
2021/11/23 22:14:44;;;;;;;;;;;;;;;5.49;100.00;95403.84;10423390;28;19920;-81
2021/11/23 22:19:44;;;;;;;;;;;;;;;5.02;100.00;95399.06;10406863;28;19967;-76
2021/11/23 22:24:44;;;;;;;;;;;;;;;4.92;100.00;95404.91;10408746;28;19923;-79
2021/11/23 22:29:45;;;;;;;;;;;;;;;4.73;100.00;95405.91;10406880;28;19917;-75
2021/11/23 22:34:45;;;;;;;;;;;;;;;4.54;100.00;95408.53;10533405;22;20056;-74
2021/11/23 22:39:45;;;;;;;;;;;;;;;4.56;100.00;95413.66;10428885;28;19924;-75
2021/11/23 22:44:46;;;;;;;;;;;;;;;4.77;100.00;95407.94;10427933;28;19913;-78
2021/11/23 22:49:46;;;;;;;;;;;;;;;4.88;100.00;95403.72;10403692;28;20004;-74
2021/11/23 22:54:46;;;;;;;;;;;;;;;4.82;100.00;95409.94;10391119;28;20413;-76
2021/11/23 22:59:47;;;;;;;;;;;;;;;4.78;100.00;95406.88;10445397;28;19956;-75
2021/11/23 23:04:47;;;;;;;;;;;;;;;4.62;100.00;95418.91;10427688;28;19913;-74
2021/11/23 23:09:47;;;;;;;;;;;;;;;4.53;100.00;95414.91;10426595;28;19912;-74
2021/11/23 23:14:48;;;;;;;;;;;;;;;4.58;100.00;95415.06;10427284;28;20233;-74
2021/11/23 23:19:48;;;;;;;;;;;;;;;4.43;100.00;95420.72;10427097;28;19917;-78
2021/11/23 23:24:48;;;;;;;;;;;;;;;4.58;100.00;95423.06;10426730;28;20543;-75
2021/11/23 23:29:49;;;;;;;;;;;;;;;4.55;100.00;95423.50;10426779;28;19920;-75
2021/11/23 23:34:49;;;;;;;;;;;;;;;4.51;100.00;95418.81;10443627;28;19956;-79
2021/11/23 23:39:49;;;;;;;;;;;;;;;4.44;100.00;95424.19;10414967;28;19921;-77
2021/11/23 23:44:50;;;;;;;;;;;;;;;4.36;100.00;95421.81;10401082;28;20359;-77
2021/11/23 23:49:50;;;;;;;;;;;;;;;4.34;100.00;95419.38;10400993;28;20415;-74
2021/11/23 23:54:51;;;;;;;;;;;;;;;4.33;100.00;95416.94;10401344;28;19913;-77
2021/11/23 23:59:51;;;;;;;;;;;;;;;4.36;100.00;95422.63;10401058;28;20406;-77
